sensor_id;sensor_type;location;lat;lon;timestamp;pressure;altitude;pressure_sealevel;temperature;humidity
84083;BME280;74174;52.224;6.878;2024-03-07T00:00:34;102349.44;;;5.59;86.79
84083;BME280;74174;52.224;6.878;2024-03-07T00:03:00;102353.16;;;5.56;86.47
84083;BME280;74174;52.224;6.878;2024-03-07T00:05:26;102353.31;;;5.55;86.87
84083;BME280;74174;52.224;6.878;2024-03-07T00:07:52;102350.09;;;5.51;86.86
84083;BME280;74174;52.224;6.878;2024-03-07T00:10:18;102358.16;;;5.50;87.10
84083;BME280;74174;52.224;6.878;2024-03-07T00:12:43;102355.78;;;5.47;86.57
84083;BME280;74174;52.224;6.878;2024-03-07T00:15:10;102344.16;;;5.40;86.59
84083;BME280;74174;52.224;6.878;2024-03-07T00:17:37;102349.28;;;5.41;86.63
84083;BME280;74174;52.224;6.878;2024-03-07T00:20:05;102359.94;;;5.40;86.71
84083;BME280;74174;52.224;6.878;2024-03-07T00:22:38;102359.38;;;5.36;86.62
84083;BME280;74174;52.224;6.878;2024-03-07T00:25:04;102354.25;;;5.35;86.40
84083;BME280;74174;52.224;6.878;2024-03-07T00:27:31;102361.34;;;5.34;86.91
84083;BME280;74174;52.224;6.878;2024-03-07T00:29:58;102362.44;;;5.32;85.91
84083;BME280;74174;52.224;6.878;2024-03-07T00:32:23;102361.72;;;5.30;86.70
84083;BME280;74174;52.224;6.878;2024-03-07T00:34:49;102361.03;;;5.28;86.44
84083;BME280;74174;52.224;6.878;2024-03-07T00:37:16;102367.25;;;5.27;85.66
84083;BME280;74174;52.224;6.878;2024-03-07T00:39:42;102358.94;;;5.22;85.81
84083;BME280;74174;52.224;6.878;2024-03-07T00:42:08;102366.16;;;5.20;85.38
84083;BME280;74174;52.224;6.878;2024-03-07T00:44:35;102363.78;;;5.17;86.11
84083;BME280;74174;52.224;6.878;2024-03-07T00:47:01;102365.97;;;5.12;86.58
84083;BME280;74174;52.224;6.878;2024-03-07T00:49:30;102355.63;;;5.10;86.31
84083;BME280;74174;52.224;6.878;2024-03-07T00:51:57;102355.19;;;5.05;86.05
84083;BME280;74174;52.224;6.878;2024-03-07T00:54:23;102364.03;;;5.04;87.65
84083;BME280;74174;52.224;6.878;2024-03-07T00:56:49;102356.28;;;5.03;86.70
84083;BME280;74174;52.224;6.878;2024-03-07T00:59:17;102351.69;;;4.95;87.38
84083;BME280;74174;52.224;6.878;2024-03-07T01:01:44;102364.56;;;4.98;87.66
84083;BME280;74174;52.224;6.878;2024-03-07T01:04:10;102362.09;;;4.97;87.68
84083;BME280;74174;52.224;6.878;2024-03-07T01:06:38;102356.94;;;4.95;86.85
84083;BME280;74174;52.224;6.878;2024-03-07T01:09:04;102350.47;;;4.89;86.47
84083;BME280;74174;52.224;6.878;2024-03-07T01:11:30;102358.06;;;4.93;87.15
84083;BME280;74174;52.224;6.878;2024-03-07T01:13:55;102356.66;;;4.88;86.91
84083;BME280;74174;52.224;6.878;2024-03-07T01:16:21;102356.81;;;4.87;87.10
84083;BME280;74174;52.224;6.878;2024-03-07T01:18:47;102359.69;;;4.84;87.25
84083;BME280;74174;52.224;6.878;2024-03-07T01:21:12;102354.59;;;4.82;86.73
84083;BME280;74174;52.224;6.878;2024-03-07T01:23:38;102355.69;;;4.80;87.37
84083;BME280;74174;52.224;6.878;2024-03-07T01:26:04;102347.63;;;4.72;87.12
84083;BME280;74174;52.224;6.878;2024-03-07T01:28:29;102345.00;;;4.72;87.65
84083;BME280;74174;52.224;6.878;2024-03-07T01:30:56;102339.19;;;4.68;87.24
84083;BME280;74174;52.224;6.878;2024-03-07T01:33:22;102349.56;;;4.70;87.48
84083;BME280;74174;52.224;6.878;2024-03-07T01:35:48;102344.44;;;4.68;87.33
84083;BME280;74174;52.224;6.878;2024-03-07T01:38:14;102346.38;;;4.66;86.45
84083;BME280;74174;52.224;6.878;2024-03-07T01:40:41;102347.34;;;4.65;87.49
84083;BME280;74174;52.224;6.878;2024-03-07T01:43:08;102341.53;;;4.62;86.76
84083;BME280;74174;52.224;6.878;2024-03-07T01:45:35;102335.69;;;4.58;87.42
84083;BME280;74174;52.224;6.878;2024-03-07T01:48:09;102343.72;;;4.57;87.62
84083;BME280;74174;52.224;6.878;2024-03-07T01:50:38;102346.75;;;4.52;87.39
84083;BME280;74174;52.224;6.878;2024-03-07T01:53:04;102349.47;;;4.51;88.36
84083;BME280;74174;52.224;6.878;2024-03-07T01:55:31;102348.69;;;4.50;88.47
84083;BME280;74174;52.224;6.878;2024-03-07T01:57:59;102340.06;;;4.48;88.35
84083;BME280;74174;52.224;6.878;2024-03-07T02:00:26;102345.31;;;4.48;87.55
84083;BME280;74174;52.224;6.878;2024-03-07T02:02:53;102346.41;;;4.46;88.61
84083;BME280;74174;52.224;6.878;2024-03-07T02:05:19;102331.34;;;4.38;87.85
84083;BME280;74174;52.224;6.878;2024-03-07T02:07:45;102338.13;;;4.41;88.54
84083;BME280;74174;52.224;6.878;2024-03-07T02:10:10;102335.50;;;4.41;87.77
84083;BME280;74174;52.224;6.878;2024-03-07T02:12:36;102339.09;;;4.40;87.33
84083;BME280;74174;52.224;6.878;2024-03-07T02:15:01;102333.13;;;4.38;87.96
84083;BME280;74174;52.224;6.878;2024-03-07T02:17:28;102340.31;;;4.36;89.00
84083;BME280;74174;52.224;6.878;2024-03-07T02:19:53;102335.56;;;4.30;88.47
84083;BME280;74174;52.224;6.878;2024-03-07T02:22:19;102329.78;;;4.26;88.33
84083;BME280;74174;52.224;6.878;2024-03-07T02:24:45;102327.16;;;4.26;88.46
84083;BME280;74174;52.224;6.878;2024-03-07T02:27:14;102332.66;;;4.23;88.41
84083;BME280;74174;52.224;6.878;2024-03-07T02:29:42;102328.47;;;4.20;88.77
84083;BME280;74174;52.224;6.878;2024-03-07T02:32:08;102333.72;;;4.20;88.62
84083;BME280;74174;52.224;6.878;2024-03-07T02:34:35;102331.09;;;4.20;88.71
84083;BME280;74174;52.224;6.878;2024-03-07T02:37:00;102333.28;;;4.15;88.27
84083;BME280;74174;52.224;6.878;2024-03-07T02:39:27;102329.16;;;4.13;88.93
84083;BME280;74174;52.224;6.878;2024-03-07T02:41:53;102322.50;;;4.09;88.78
84083;BME280;74174;52.224;6.878;2024-03-07T02:44:18;102325.00;;;4.10;87.87
84083;BME280;74174;52.224;6.878;2024-03-07T02:46:44;102320.16;;;4.06;88.50
84083;BME280;74174;52.224;6.878;2024-03-07T02:49:10;102316.78;;;4.04;88.56
84083;BME280;74174;52.224;6.878;2024-03-07T02:51:35;102316.09;;;4.02;87.83
84083;BME280;74174;52.224;6.878;2024-03-07T02:54:02;102328.75;;;3.97;88.74
84083;BME280;74174;52.224;6.878;2024-03-07T02:56:31;102327.13;;;3.96;88.26
84083;BME280;74174;52.224;6.878;2024-03-07T02:58:56;102313.88;;;3.97;88.77
84083;BME280;74174;52.224;6.878;2024-03-07T03:01:22;102322.81;;;3.95;88.45
84083;BME280;74174;52.224;6.878;2024-03-07T03:03:47;102323.81;;;3.94;87.94
84083;BME280;74174;52.224;6.878;2024-03-07T03:06:12;102323.22;;;3.90;87.34
84083;BME280;74174;52.224;6.878;2024-03-07T03:08:38;102317.41;;;3.87;87.13
84083;BME280;74174;52.224;6.878;2024-03-07T03:11:04;102319.56;;;3.82;87.81
84083;BME280;74174;52.224;6.878;2024-03-07T03:13:31;102319.44;;;3.83;88.75
84083;BME280;74174;52.224;6.878;2024-03-07T03:15:57;102314.59;;;3.79;87.97
84083;BME280;74174;52.224;6.878;2024-03-07T03:18:22;102310.19;;;3.79;88.60
84083;BME280;74174;52.224;6.878;2024-03-07T03:20:49;102309.34;;;3.79;87.92
84083;BME280;74174;52.224;6.878;2024-03-07T03:23:14;102308.78;;;3.75;88.65
84083;BME280;74174;52.224;6.878;2024-03-07T03:25:40;102305.47;;;3.73;88.52
84083;BME280;74174;52.224;6.878;2024-03-07T03:28:06;102317.84;;;3.71;88.19
84083;BME280;74174;52.224;6.878;2024-03-07T03:30:41;102306.78;;;3.68;88.42
84083;BME280;74174;52.224;6.878;2024-03-07T03:33:07;102309.41;;;3.68;88.89
84083;BME280;74174;52.224;6.878;2024-03-07T03:35:33;102305.25;;;3.65;88.58
84083;BME280;74174;52.224;6.878;2024-03-07T03:37:59;102314.19;;;3.63;88.19
84083;BME280;74174;52.224;6.878;2024-03-07T03:40:25;102315.88;;;3.64;89.35
84083;BME280;74174;52.224;6.878;2024-03-07T03:42:51;102313.63;;;3.59;88.91
84083;BME280;74174;52.224;6.878;2024-03-07T03:45:17;102311.25;;;3.56;89.57
84083;BME280;74174;52.224;6.878;2024-03-07T03:47:43;102309.72;;;3.54;89.80
84083;BME280;74174;52.224;6.878;2024-03-07T03:50:10;102316.03;;;3.51;89.39
84083;BME280;74174;52.224;6.878;2024-03-07T03:52:36;102313.81;;;3.46;89.00
84083;BME280;74174;52.224;6.878;2024-03-07T03:55:03;102318.34;;;3.44;89.31
84083;BME280;74174;52.224;6.878;2024-03-07T03:57:49;102309.31;;;3.37;89.55
84083;BME280;74174;52.224;6.878;2024-03-07T04:00:14;102314.44;;;3.39;89.04
84083;BME280;74174;52.224;6.878;2024-03-07T04:02:43;102320.88;;;3.35;89.56
84083;BME280;74174;52.224;6.878;2024-03-07T04:05:11;102303.69;;;3.21;89.80
84083;BME280;74174;52.224;6.878;2024-03-07T04:07:38;102318.88;;;3.27;89.01
84083;BME280;74174;52.224;6.878;2024-03-07T04:10:05;102310.44;;;3.24;89.54
84083;BME280;74174;52.224;6.878;2024-03-07T04:12:37;102309.84;;;3.20;89.48
84083;BME280;74174;52.224;6.878;2024-03-07T04:15:06;102306.53;;;3.18;89.45
84083;BME280;74174;52.224;6.878;2024-03-07T04:17:36;102303.34;;;3.15;89.32
84083;BME280;74174;52.224;6.878;2024-03-07T04:20:03;102304.66;;;3.09;89.75
84083;BME280;74174;52.224;6.878;2024-03-07T04:22:35;102295.03;;;3.10;89.65
84083;BME280;74174;52.224;6.878;2024-03-07T04:25:01;102307.28;;;3.09;89.13
84083;BME280;74174;52.224;6.878;2024-03-07T04:27:27;102298.81;;;3.06;89.55
84083;BME280;74174;52.224;6.878;2024-03-07T04:29:54;102299.94;;;3.03;90.10
84083;BME280;74174;52.224;6.878;2024-03-07T04:32:21;102296.72;;;3.00;89.59
84083;BME280;74174;52.224;6.878;2024-03-07T04:34:46;102307.31;;;2.98;89.78
84083;BME280;74174;52.224;6.878;2024-03-07T04:37:12;102301.63;;;2.93;89.30
84083;BME280;74174;52.224;6.878;2024-03-07T04:39:40;102302.00;;;2.89;89.63
84083;BME280;74174;52.224;6.878;2024-03-07T04:42:07;102301.16;;;2.88;89.47
84083;BME280;74174;52.224;6.878;2024-03-07T04:44:35;102295.91;;;2.88;89.33
84083;BME280;74174;52.224;6.878;2024-03-07T04:47:01;102293.53;;;2.85;89.18
84083;BME280;74174;52.224;6.878;2024-03-07T04:49:28;102304.13;;;2.84;90.26
84083;BME280;74174;52.224;6.878;2024-03-07T04:51:55;102306.28;;;2.78;89.38
84083;BME280;74174;52.224;6.878;2024-03-07T04:54:22;102295.81;;;2.78;89.62
84083;BME280;74174;52.224;6.878;2024-03-07T04:56:49;102306.41;;;2.77;89.73
84083;BME280;74174;52.224;6.878;2024-03-07T04:59:18;102292.63;;;2.75;88.77
84083;BME280;74174;52.224;6.878;2024-03-07T05:01:44;102298.94;;;2.72;89.57
84083;BME280;74174;52.224;6.878;2024-03-07T05:04:11;102295.72;;;2.69;89.47
84083;BME280;74174;52.224;6.878;2024-03-07T05:06:38;102296.69;;;2.68;89.42
84083;BME280;74174;52.224;6.878;2024-03-07T05:09:05;102301.22;;;2.66;88.56
84083;BME280;74174;52.224;6.878;2024-03-07T05:11:33;102303.94;;;2.64;89.57
84083;BME280;74174;52.224;6.878;2024-03-07T05:13:58;102297.28;;;2.60;89.67
84083;BME280;74174;52.224;6.878;2024-03-07T05:16:25;102296.44;;;2.60;89.36
84083;BME280;74174;52.224;6.878;2024-03-07T05:18:51;102297.41;;;2.59;89.31
84083;BME280;74174;52.224;6.878;2024-03-07T05:21:17;102297.41;;;2.59;89.29
84083;BME280;74174;52.224;6.878;2024-03-07T05:23:58;102296.09;;;2.53;89.74
84083;BME280;74174;52.224;6.878;2024-03-07T05:26:24;102301.47;;;2.52;89.45
84083;BME280;74174;52.224;6.878;2024-03-07T05:28:50;102296.47;;;2.49;88.97
84083;BME280;74174;52.224;6.878;2024-03-07T05:31:17;102289.56;;;2.48;88.85
84083;BME280;74174;52.224;6.878;2024-03-07T05:33:44;102295.06;;;2.45;88.38
84083;BME280;74174;52.224;6.878;2024-03-07T05:36:11;102298.84;;;2.41;89.40
84083;BME280;74174;52.224;6.878;2024-03-07T05:38:43;102297.41;;;2.37;89.60
84083;BME280;74174;52.224;6.878;2024-03-07T05:41:12;102301.72;;;2.38;89.86
84083;BME280;74174;52.224;6.878;2024-03-07T05:43:38;102297.66;;;2.34;89.45
84083;BME280;74174;52.224;6.878;2024-03-07T05:46:04;102301.94;;;2.35;88.85
84083;BME280;74174;52.224;6.878;2024-03-07T05:48:32;102302.88;;;2.34;88.93
84083;BME280;74174;52.224;6.878;2024-03-07T05:51:00;102301.22;;;2.33;89.26
84083;BME280;74174;52.224;6.878;2024-03-07T05:53:27;102304.78;;;2.32;89.53
84083;BME280;74174;52.224;6.878;2024-03-07T05:55:52;102303.94;;;2.31;88.73
84083;BME280;74174;52.224;6.878;2024-03-07T05:58:18;102305.97;;;2.28;89.09
84083;BME280;74174;52.224;6.878;2024-03-07T06:00:48;102301.81;;;2.25;89.71
84083;BME280;74174;52.224;6.878;2024-03-07T06:03:16;102302.88;;;2.23;89.26
84083;BME280;74174;52.224;6.878;2024-03-07T06:05:43;102294.81;;;2.15;89.47
84083;BME280;74174;52.224;6.878;2024-03-07T06:08:09;102304.31;;;2.16;88.99
84083;BME280;74174;52.224;6.878;2024-03-07T06:10:34;102310.50;;;2.15;89.67
84083;BME280;74174;52.224;6.878;2024-03-07T06:12:59;102307.06;;;2.14;90.02
84083;BME280;74174;52.224;6.878;2024-03-07T06:15:25;102303.59;;;2.14;89.72
84083;BME280;74174;52.224;6.878;2024-03-07T06:17:50;102307.88;;;2.15;90.10
84083;BME280;74174;52.224;6.878;2024-03-07T06:20:18;102308.13;;;2.12;89.95
84083;BME280;74174;52.224;6.878;2024-03-07T06:22:50;102306.78;;;2.06;89.72
84083;BME280;74174;52.224;6.878;2024-03-07T06:25:17;102319.78;;;2.07;89.71
84083;BME280;74174;52.224;6.878;2024-03-07T06:27:46;102314.75;;;2.04;89.88
84083;BME280;74174;52.224;6.878;2024-03-07T06:30:15;102323.09;;;2.09;90.67
84083;BME280;74174;52.224;6.878;2024-03-07T06:32:46;102323.09;;;2.09;89.94
84083;BME280;74174;52.224;6.878;2024-03-07T06:35:12;102322.13;;;2.10;90.51
84083;BME280;74174;52.224;6.878;2024-03-07T06:37:37;102322.84;;;2.13;90.80
84083;BME280;74174;52.224;6.878;2024-03-07T06:40:03;102315.13;;;2.11;90.07
84083;BME280;74174;52.224;6.878;2024-03-07T06:42:35;102315.97;;;2.12;90.33
84083;BME280;74174;52.224;6.878;2024-03-07T06:45:09;102320.22;;;2.13;90.10
84083;BME280;74174;52.224;6.878;2024-03-07T06:47:35;102324.16;;;2.18;90.21
84083;BME280;74174;52.224;6.878;2024-03-07T06:50:00;102316.66;;;2.14;89.98
84083;BME280;74174;52.224;6.878;2024-03-07T06:52:25;102325.00;;;2.19;90.14
84083;BME280;74174;52.224;6.878;2024-03-07T06:54:51;102324.78;;;2.22;90.19
84083;BME280;74174;52.224;6.878;2024-03-07T06:57:17;102325.84;;;2.19;90.48
84083;BME280;74174;52.224;6.878;2024-03-07T06:59:42;102327.25;;;2.23;90.50
84083;BME280;74174;52.224;6.878;2024-03-07T07:02:08;102328.19;;;2.22;89.92
84083;BME280;74174;52.224;6.878;2024-03-07T07:04:34;102323.31;;;2.18;90.01
84083;BME280;74174;52.224;6.878;2024-03-07T07:07:13;102327.38;;;2.22;90.34
84083;BME280;74174;52.224;6.878;2024-03-07T07:09:40;102319.19;;;2.26;90.40
84083;BME280;74174;52.224;6.878;2024-03-07T07:12:06;102333.19;;;2.25;90.24
84083;BME280;74174;52.224;6.878;2024-03-07T07:14:31;102335.22;;;2.33;90.42
84083;BME280;74174;52.224;6.878;2024-03-07T07:16:56;102330.00;;;2.33;90.17
84083;BME280;74174;52.224;6.878;2024-03-07T07:19:24;102313.59;;;2.31;90.05
84083;BME280;74174;52.224;6.878;2024-03-07T07:21:49;102328.44;;;2.41;90.26
84083;BME280;74174;52.224;6.878;2024-03-07T07:24:20;102332.59;;;2.44;89.94
84083;BME280;74174;52.224;6.878;2024-03-07T07:26:49;102324.53;;;2.47;89.53
84083;BME280;74174;52.224;6.878;2024-03-07T07:29:15;102333.66;;;2.52;90.26
84083;BME280;74174;52.224;6.878;2024-03-07T07:31:42;102333.22;;;2.58;89.77
84083;BME280;74174;52.224;6.878;2024-03-07T07:34:10;102330.22;;;2.63;89.18
84083;BME280;74174;52.224;6.878;2024-03-07T07:36:36;102328.09;;;2.68;89.49
84083;BME280;74174;52.224;6.878;2024-03-07T07:39:02;102325.34;;;2.69;89.50
84083;BME280;74174;52.224;6.878;2024-03-07T07:41:28;102323.91;;;2.76;89.61
84083;BME280;74174;52.224;6.878;2024-03-07T07:43:55;102326.16;;;2.81;89.46
84083;BME280;74174;52.224;6.878;2024-03-07T07:46:22;102319.94;;;2.93;89.19
84083;BME280;74174;52.224;6.878;2024-03-07T07:48:49;102321.34;;;2.97;88.56
84083;BME280;74174;52.224;6.878;2024-03-07T07:51:15;102313.88;;;2.93;88.58
84083;BME280;74174;52.224;6.878;2024-03-07T07:53:40;102309.66;;;3.01;89.05
84083;BME280;74174;52.224;6.878;2024-03-07T07:56:07;102317.06;;;3.07;88.90
84083;BME280;74174;52.224;6.878;2024-03-07T07:58:34;102320.13;;;3.12;88.58
84083;BME280;74174;52.224;6.878;2024-03-07T08:01:01;102322.25;;;3.18;87.70
84083;BME280;74174;52.224;6.878;2024-03-07T08:03:28;102316.41;;;3.26;88.03
84083;BME280;74174;52.224;6.878;2024-03-07T08:05:56;102320.19;;;3.33;88.07
84083;BME280;74174;52.224;6.878;2024-03-07T08:08:23;102310.97;;;3.38;87.79
84083;BME280;74174;52.224;6.878;2024-03-07T08:10:48;102306.47;;;3.40;87.39
84083;BME280;74174;52.224;6.878;2024-03-07T08:13:14;102314.41;;;3.50;87.53
84083;BME280;74174;52.224;6.878;2024-03-07T08:15:39;102309.19;;;3.60;87.98
84083;BME280;74174;52.224;6.878;2024-03-07T08:18:07;102308.47;;;3.69;87.01
84083;BME280;74174;52.224;6.878;2024-03-07T08:20:36;102307.94;;;3.75;86.75
84083;BME280;74174;52.224;6.878;2024-03-07T08:23:02;102318.88;;;3.80;87.04
84083;BME280;74174;52.224;6.878;2024-03-07T08:25:28;102315.28;;;3.81;86.15
84083;BME280;74174;52.224;6.878;2024-03-07T08:27:57;102323.03;;;3.82;87.14
84083;BME280;74174;52.224;6.878;2024-03-07T08:30:24;102322.19;;;3.82;85.95
84083;BME280;74174;52.224;6.878;2024-03-07T08:32:52;102320.97;;;3.86;86.85
84083;BME280;74174;52.224;6.878;2024-03-07T08:35:18;102309.25;;;3.90;86.37
84083;BME280;74174;52.224;6.878;2024-03-07T08:37:45;102289.41;;;3.87;86.61
84083;BME280;74174;52.224;6.878;2024-03-07T08:40:14;102284.84;;;3.89;86.02
84083;BME280;74174;52.224;6.878;2024-03-07T08:42:45;102301.72;;;3.96;86.43
84083;BME280;74174;52.224;6.878;2024-03-07T08:45:10;102297.28;;;3.97;86.28
84083;BME280;74174;52.224;6.878;2024-03-07T08:47:37;102305.44;;;3.94;85.73
84083;BME280;74174;52.224;6.878;2024-03-07T08:50:07;102302.53;;;3.97;85.96
84083;BME280;74174;52.224;6.878;2024-03-07T08:52:37;102305.59;;;4.02;86.49
84083;BME280;74174;52.224;6.878;2024-03-07T08:55:04;102301.78;;;4.06;86.60
84083;BME280;74174;52.224;6.878;2024-03-07T08:57:30;102310.91;;;4.11;85.72
84083;BME280;74174;52.224;6.878;2024-03-07T08:59:55;102304.56;;;4.14;85.86
84083;BME280;74174;52.224;6.878;2024-03-07T09:02:21;102302.38;;;4.19;86.37
84083;BME280;74174;52.224;6.878;2024-03-07T09:04:46;102294.97;;;4.24;85.68
84083;BME280;74174;52.224;6.878;2024-03-07T09:07:13;102293.19;;;4.25;86.04
84083;BME280;74174;52.224;6.878;2024-03-07T09:09:43;102296.75;;;4.24;85.87
84083;BME280;74174;52.224;6.878;2024-03-07T09:12:10;102300.22;;;4.24;85.81
84083;BME280;74174;52.224;6.878;2024-03-07T09:14:37;102294.97;;;4.24;85.58
84083;BME280;74174;52.224;6.878;2024-03-07T09:17:03;102306.28;;;4.25;86.26
84083;BME280;74174;52.224;6.878;2024-03-07T09:19:30;102294.53;;;4.19;85.40
84083;BME280;74174;52.224;6.878;2024-03-07T09:21:57;102314.72;;;4.28;85.97
84083;BME280;74174;52.224;6.878;2024-03-07T09:24:23;102317.09;;;4.31;85.55
84083;BME280;74174;52.224;6.878;2024-03-07T09:26:50;102304.91;;;4.30;86.02
84083;BME280;74174;52.224;6.878;2024-03-07T09:29:17;102312.53;;;4.33;85.46
84083;BME280;74174;52.224;6.878;2024-03-07T09:31:44;102309.91;;;4.33;85.36
84083;BME280;74174;52.224;6.878;2024-03-07T09:34:10;102301.91;;;4.35;86.06
84083;BME280;74174;52.224;6.878;2024-03-07T09:36:36;102300.38;;;4.32;85.76
84083;BME280;74174;52.224;6.878;2024-03-07T09:39:03;102299.16;;;4.36;86.06
84083;BME280;74174;52.224;6.878;2024-03-07T09:41:29;102295.31;;;4.40;86.45
84083;BME280;74174;52.224;6.878;2024-03-07T09:43:55;102297.28;;;4.48;86.09
84083;BME280;74174;52.224;6.878;2024-03-07T09:46:22;102291.31;;;4.55;86.10
84083;BME280;74174;52.224;6.878;2024-03-07T09:48:49;102296.31;;;4.58;85.28
84083;BME280;74174;52.224;6.878;2024-03-07T09:51:20;102299.38;;;4.63;85.75
84083;BME280;74174;52.224;6.878;2024-03-07T09:53:49;102286.09;;;4.65;85.77
84083;BME280;74174;52.224;6.878;2024-03-07T09:56:17;102287.91;;;4.74;85.61
84083;BME280;74174;52.224;6.878;2024-03-07T09:58:49;102288.25;;;4.80;85.48
84083;BME280;74174;52.224;6.878;2024-03-07T10:01:17;102292.25;;;4.84;84.27
84083;BME280;74174;52.224;6.878;2024-03-07T10:03:45;102298.88;;;4.88;85.46
84083;BME280;74174;52.224;6.878;2024-03-07T10:06:19;102292.94;;;4.96;85.54
84083;BME280;74174;52.224;6.878;2024-03-07T10:08:47;102300.16;;;5.04;84.73
84083;BME280;74174;52.224;6.878;2024-03-07T10:11:14;102310.09;;;5.10;84.19
84083;BME280;74174;52.224;6.878;2024-03-07T10:13:41;102297.41;;;5.15;84.43
84083;BME280;74174;52.224;6.878;2024-03-07T10:16:07;102283.84;;;5.19;84.19
84083;BME280;74174;52.224;6.878;2024-03-07T10:18:41;102287.84;;;5.33;85.02
84083;BME280;74174;52.224;6.878;2024-03-07T10:21:08;102291.59;;;5.49;84.33
84083;BME280;74174;52.224;6.878;2024-03-07T10:23:33;102281.22;;;5.57;83.32
84083;BME280;74174;52.224;6.878;2024-03-07T10:26:00;102267.47;;;5.73;84.29
84083;BME280;74174;52.224;6.878;2024-03-07T10:28:26;102276.97;;;6.03;85.37
84083;BME280;74174;52.224;6.878;2024-03-07T10:30:53;102267.16;;;6.32;83.47
84083;BME280;74174;52.224;6.878;2024-03-07T10:33:18;102269.09;;;6.57;82.48
84083;BME280;74174;52.224;6.878;2024-03-07T10:35:47;102267.09;;;6.69;81.21
84083;BME280;74174;52.224;6.878;2024-03-07T10:38:16;102271.38;;;6.70;81.28
84083;BME280;74174;52.224;6.878;2024-03-07T10:40:47;102269.44;;;7.07;80.48
84083;BME280;74174;52.224;6.878;2024-03-07T10:43:13;102254.84;;;7.30;79.21
84083;BME280;74174;52.224;6.878;2024-03-07T10:45:45;102256.25;;;7.42;78.14
84083;BME280;74174;52.224;6.878;2024-03-07T10:48:19;102271.06;;;7.61;77.51
84083;BME280;74174;52.224;6.878;2024-03-07T10:51:00;102245.78;;;7.76;77.76
84083;BME280;74174;52.224;6.878;2024-03-07T10:58:37;102260.25;;;7.46;76.25
84083;BME280;74174;52.224;6.878;2024-03-07T11:01:10;102262.66;;;7.40;76.43
84083;BME280;74174;52.224;6.878;2024-03-07T11:03:37;102268.25;;;7.19;77.32
84083;BME280;74174;52.224;6.878;2024-03-07T11:06:05;102258.91;;;7.25;78.13
84083;BME280;74174;52.224;6.878;2024-03-07T11:08:33;102254.53;;;7.33;78.36
84083;BME280;74174;52.224;6.878;2024-03-07T11:11:00;102254.09;;;7.20;77.94
84083;BME280;74174;52.224;6.878;2024-03-07T11:13:27;102243.47;;;7.12;78.46
84083;BME280;74174;52.224;6.878;2024-03-07T11:15:54;102255.13;;;7.10;78.22
84083;BME280;74174;52.224;6.878;2024-03-07T11:18:23;102251.38;;;6.94;78.95
84083;BME280;74174;52.224;6.878;2024-03-07T11:20:49;102254.38;;;6.82;79.48
84083;BME280;74174;52.224;6.878;2024-03-07T11:23:28;102253.41;;;6.83;80.16
84083;BME280;74174;52.224;6.878;2024-03-07T11:26:10;102242.03;;;6.82;80.26
84083;BME280;74174;52.224;6.878;2024-03-07T11:28:37;102244.84;;;6.81;80.44
84083;BME280;74174;52.224;6.878;2024-03-07T11:31:15;102232.47;;;6.81;80.16
84083;BME280;74174;52.224;6.878;2024-03-07T11:34:12;102241.69;;;6.95;80.68
84083;BME280;74174;52.224;6.878;2024-03-07T11:36:44;102235.66;;;6.85;80.31
84083;BME280;74174;52.224;6.878;2024-03-07T11:39:42;102232.13;;;6.76;80.71
84083;BME280;74174;52.224;6.878;2024-03-07T11:44:51;102222.59;;;6.66;81.16
84083;BME280;74174;52.224;6.878;2024-03-07T11:47:17;102218.31;;;6.65;81.31
84083;BME280;74174;52.224;6.878;2024-03-07T11:49:45;102215.38;;;6.68;81.74
84083;BME280;74174;52.224;6.878;2024-03-07T11:52:15;102210.50;;;6.73;81.37
84083;BME280;74174;52.224;6.878;2024-03-07T11:54:42;102196.66;;;6.71;81.33
84083;BME280;74174;52.224;6.878;2024-03-07T11:57:27;102201.09;;;6.88;82.66
84083;BME280;74174;52.224;6.878;2024-03-07T11:59:58;102206.13;;;6.99;81.77
84083;BME280;74174;52.224;6.878;2024-03-07T12:02:26;102194.47;;;7.02;81.49
84083;BME280;74174;52.224;6.878;2024-03-07T12:04:58;102201.75;;;7.08;81.67
84083;BME280;74174;52.224;6.878;2024-03-07T12:07:23;102199.72;;;7.02;80.53
84083;BME280;74174;52.224;6.878;2024-03-07T12:09:49;102186.19;;;6.96;80.99
84083;BME280;74174;52.224;6.878;2024-03-07T12:12:22;102195.50;;;7.09;80.88
84083;BME280;74174;52.224;6.878;2024-03-07T12:14:50;102193.34;;;7.04;81.52
84083;BME280;74174;52.224;6.878;2024-03-07T12:17:22;102179.56;;;6.92;80.87
84083;BME280;74174;52.224;6.878;2024-03-07T12:19:48;102175.78;;;6.95;81.38
84083;BME280;74174;52.224;6.878;2024-03-07T12:22:19;102182.56;;;6.97;81.17
84083;BME280;74174;52.224;6.878;2024-03-07T12:25:09;102170.66;;;6.93;81.00
84083;BME280;74174;52.224;6.878;2024-03-07T12:27:37;102170.75;;;7.02;81.49
84083;BME280;74174;52.224;6.878;2024-03-07T12:30:14;102164.19;;;7.06;80.78
84083;BME280;74174;52.224;6.878;2024-03-07T12:32:51;102156.94;;;7.08;80.91
84083;BME280;74174;52.224;6.878;2024-03-07T12:35:17;102162.84;;;7.02;80.57
84083;BME280;74174;52.224;6.878;2024-03-07T12:37:43;102167.56;;;6.98;80.87
84083;BME280;74174;52.224;6.878;2024-03-07T12:40:12;102165.31;;;7.03;81.14
84083;BME280;74174;52.224;6.878;2024-03-07T12:42:48;102157.72;;;7.00;81.56
84083;BME280;74174;52.224;6.878;2024-03-07T12:45:17;102154.66;;;7.13;81.05
84083;BME280;74174;52.224;6.878;2024-03-07T12:47:46;102150.25;;;7.13;80.88
84083;BME280;74174;52.224;6.878;2024-03-07T12:50:18;102150.84;;;7.07;80.39
84083;BME280;74174;52.224;6.878;2024-03-07T12:52:49;102144.09;;;7.05;80.98
84083;BME280;74174;52.224;6.878;2024-03-07T12:55:17;102150.78;;;6.99;81.38
84083;BME280;74174;52.224;6.878;2024-03-07T12:57:49;102152.28;;;7.02;80.87
84083;BME280;74174;52.224;6.878;2024-03-07T13:00:16;102135.84;;;7.08;81.43
84083;BME280;74174;52.224;6.878;2024-03-07T13:02:49;102136.22;;;7.13;81.01
84083;BME280;74174;52.224;6.878;2024-03-07T13:05:15;102132.53;;;7.06;81.30
84083;BME280;74174;52.224;6.878;2024-03-07T13:07:46;102130.75;;;7.06;80.87
84083;BME280;74174;52.224;6.878;2024-03-07T13:10:13;102127.19;;;7.15;81.65